»·PEaware :: SKY171 KDLS-KMMV

SKY171 :: KDLS-KMMV

FLIGHT INFORMATION

Flight Status: Arrived
Operator:
Sky High Charters
More flights by this operator :: More flights under this callsign
Pilot: Tim M. (868)
Aircraft: SOCATA TBM-900
(TBM9)
More flights by this aircraft type
Origin: KDLS Columbia Gorge Regl/The Dalle
United States
Destination: KMMV McMinnville Mun
United States
More flights between these airports :: More routes between these airports
Route: +DALLS1 LTJ V112 BTG V287 UBG
File this flight plan on PilotEdge
Remarks: SKY-5, leg 1
Altitude:
(Current/Filed)
8,000ft
Speed:
(Current/Filed)
262kts
Departed: 08-Dec-19 08:28 PM
Arrived: 08-Dec-19 09:24 PM
Distance/Time
Traveled:
87nm/0:56
Distance/Time
To Go:
Arrived

Flight Plot

Page will automatically refresh every two minutes.


Map Options




Map Legend


Flown Route
Filed Route
Departure Airport
Arrival Airport
Navaid (VOR, NDB)
Fix

Horizontal Profiles

Position Reports

Time Latitude Longitude Heading Altitude Ground
Speed
08-Dec-19 19:59 45.618359 -121.172026 327 225ft 0kts
08-Dec-19 20:00 45.618359 -121.172026 327 225ft 0kts
08-Dec-19 20:01 45.618359 -121.172026 327 225ft 0kts
08-Dec-19 20:02 45.618359 -121.172026 327 225ft 0kts
08-Dec-19 20:03 45.618359 -121.172026 327 225ft 0kts
08-Dec-19 20:04 45.618359 -121.172026 327 225ft 0kts
08-Dec-19 20:05 45.618359 -121.172026 327 225ft 0kts
08-Dec-19 20:06 45.618359 -121.172026 327 225ft 0kts
08-Dec-19 20:07 45.618359 -121.172026 327 225ft 0kts
08-Dec-19 20:08 45.618359 -121.172026 327 225ft 0kts
08-Dec-19 20:09 45.618359 -121.172026 327 225ft 0kts
08-Dec-19 20:10 45.618359 -121.172026 327 225ft 0kts
08-Dec-19 20:11 45.618359 -121.172026 327 225ft 0kts
08-Dec-19 20:12 45.618359 -121.172026 327 225ft 0kts
08-Dec-19 20:13 45.618359 -121.172026 327 225ft 0kts
08-Dec-19 20:14 45.618359 -121.172026 327 225ft 0kts
08-Dec-19 20:15 45.618359 -121.172026 327 225ft 0kts
08-Dec-19 20:16 45.618359 -121.172026 327 225ft 0kts
08-Dec-19 20:17 45.618359 -121.172026 327 225ft 0kts
08-Dec-19 20:18 45.618360 -121.172026 327 225ft 0kts
08-Dec-19 20:19 45.618864 -121.172551 315 224ft 9kts
08-Dec-19 20:20 45.619328 -121.174296 266 221ft 0kts
08-Dec-19 20:21 45.619328 -121.174296 266 221ft 0kts
08-Dec-19 20:22 45.619328 -121.174296 266 221ft 0kts
08-Dec-19 20:24 45.619328 -121.174296 266 221ft 0kts
08-Dec-19 20:25 45.619315 -121.174649 267 221ft 1kts
08-Dec-19 20:26 45.620153 -121.177025 308 216ft 0kts
08-Dec-19 20:27 45.620178 -121.177071 307 216ft 2kts
08-Dec-19 20:28 45.621130 -121.157563 91 849ft 108kts
08-Dec-19 20:29 45.601404 -121.125817 135 2931ft 126kts
08-Dec-19 20:30 45.586443 -121.083704 50 5018ft 135kts
08-Dec-19 20:31 45.629632 -121.091069 320 3431ft 218kts
08-Dec-19 20:32 45.644682 -121.161503 268 1895ft 174kts
08-Dec-19 20:33 45.630811 -121.199979 174 954ft 94kts
08-Dec-19 20:34 45.620803 -121.178058 85 237ft 74kts
08-Dec-19 20:35 45.620086 -121.171505 205 221ft 21kts
08-Dec-19 20:36 45.618787 -121.173650 270 222ft 0kts
08-Dec-19 20:37 45.618787 -121.173650 270 222ft 0kts
08-Dec-19 20:38 45.618787 -121.173650 270 222ft 0kts
08-Dec-19 20:39 45.618787 -121.173650 270 222ft 0kts
08-Dec-19 20:40 45.618787 -121.173650 270 222ft 0kts
08-Dec-19 20:41 45.618787 -121.173650 270 222ft 0kts
08-Dec-19 20:42 45.618787 -121.173650 270 222ft 0kts
08-Dec-19 20:43 45.619144 -121.174143 321 221ft 8kts
08-Dec-19 20:43 45.620068 -121.176867 309 217ft 12kts
08-Dec-19 20:44 45.620157 -121.177027 308 216ft 0kts
08-Dec-19 20:46 45.620994 -121.167064 86 289ft 111kts
08-Dec-19 20:46 45.618790 -121.122337 97 1912ft 144kts
08-Dec-19 20:47 45.594553 -121.085756 110 4365ft 134kts
08-Dec-19 20:49 45.622971 -121.074710 338 7010ft 134kts
08-Dec-19 20:49 45.656767 -121.086307 348 8023ft 192kts
08-Dec-19 20:50 45.711549 -121.112286 296 7970ft 220kts
08-Dec-19 20:51 45.716402 -121.197712 273 7987ft 219kts
08-Dec-19 20:52 45.718832 -121.283535 273 7976ft 219kts
08-Dec-19 20:53 45.721213 -121.369576 273 7983ft 216kts
08-Dec-19 20:54 45.723590 -121.458633 274 7981ft 235kts
08-Dec-19 20:55 45.726029 -121.552267 273 7980ft 240kts
08-Dec-19 20:56 45.728445 -121.647712 274 7981ft 242kts
08-Dec-19 20:57 45.730757 -121.741900 273 7981ft 241kts
08-Dec-19 20:58 45.733011 -121.838205 273 7983ft 240kts
08-Dec-19 20:59 45.735142 -121.932073 273 7983ft 240kts
08-Dec-19 21:00 45.737136 -122.024443 273 7977ft 239kts
08-Dec-19 21:01 45.738846 -122.106310 273 7987ft 238kts
08-Dec-19 21:02 45.740516 -122.188907 273 7990ft 238kts
08-Dec-19 21:03 45.742294 -122.280341 273 7988ft 233kts
08-Dec-19 21:04 45.744127 -122.378220 273 7334ft 241kts
08-Dec-19 21:05 45.745826 -122.473414 272 6254ft 243kts
08-Dec-19 21:06 45.747398 -122.568819 270 5265ft 247kts
08-Dec-19 21:07 45.699811 -122.625467 206 4261ft 223kts
08-Dec-19 21:08 45.649256 -122.660755 206 3271ft 204kts
08-Dec-19 21:09 45.604553 -122.692023 206 3088ft 172kts
08-Dec-19 21:10 45.563754 -122.720533 206 3097ft 158kts
08-Dec-19 21:11 45.523183 -122.748851 206 3123ft 187kts
08-Dec-19 21:12 45.477483 -122.780675 206 3105ft 185kts
08-Dec-19 21:13 45.432377 -122.812036 205 3108ft 184kts
08-Dec-19 21:14 45.387287 -122.843330 205 3109ft 184kts
08-Dec-19 21:15 45.342590 -122.874286 205 3109ft 184kts
08-Dec-19 21:16 45.300851 -122.909287 244 2840ft 167kts
08-Dec-19 21:17 45.279554 -122.955459 238 2796ft 132kts
08-Dec-19 21:18 45.263975 -122.990112 239 2497ft 96kts
08-Dec-19 21:19 45.248257 -123.024430 240 1944ft 113kts
08-Dec-19 21:20 45.231545 -123.061432 238 1337ft 109kts
08-Dec-19 21:21 45.214795 -123.097607 239 736ft 104kts
08-Dec-19 21:22 45.200857 -123.128185 238 249ft 89kts
08-Dec-19 21:23 45.194286 -123.143227 319 162ft 6kts
08-Dec-19 21:24 45.195097 -123.142989 21 161ft 0kts
08-Dec-19 21:25 45.196924 -123.139718 56 160ft 18kts
08-Dec-19 21:26 45.198504 -123.138595 62 161ft 0kts
08-Dec-19 21:27 45.198504 -123.138595 62 161ft 0kts
08-Dec-19 21:28 45.198504 -123.138595 62 161ft 0kts
08-Dec-19 21:29 45.198504 -123.138595 62 161ft 0kts
08-Dec-19 21:30 45.198504 -123.138595 62 161ft 0kts
08-Dec-19 21:31 45.198504 -123.138595 62 161ft 0kts

Navigation Log

Ident Type
Flight plan parsing failed, navigation log unavailable